Nearby METAR Reports

KLNK - Lincoln, Nebraska, USA
Distance from station: WNW 8mi, 13km
Updated: Sat, 17-Aug-2019 11:54am CDT
Clear
Clear
 Wind from S
Wind: S 12 mph , 19 km/h
Temperature: 82°F , 28°C
Heat Index: 84°F , 29°C
Dew Point: 66°F , 19°C
Humidity: 58%
Barometer: 29.82 inHg , 1009.8 hPa
Clouds: Clear
Visibility: 10 miles , 16 km
2019/08/17 16:54 KLNK 171654Z 19010KT 10SM CLR 28/19 A2982 RMK AO2 SLP084 T02780194
KAHQ - Wahoo, Nebraska, USA
Distance from station: N 31mi, 49km
Updated: Sat, 17-Aug-2019 11:55am CDT
Clear
Clear
 Wind from S
Wind: S 8 mph , 13 km/h
Temperature: 79°F , 26°C
Dew Point: 70°F , 21°C
Humidity: 74%
Barometer: 29.81 inHg , 1009.5 hPa
Clouds: Clear
Visibility: 10 miles , 16 km
2019/08/17 16:55 KAHQ 171655Z AUTO 17007KT 10SM CLR 26/21 A2981 RMK AO2 T02550211
 
KBIE - Beatrice Municip, Nebraska, USA
Distance from station: S 36mi, 57km
Updated: Sat, 17-Aug-2019 11:55am CDT
Clear
Clear
 Wind from SSW
Wind: SSW 17 mph , 28 km/h, Gust: 21 mph , 33 km/h
Temperature: 79°F , 26°C
Dew Point: 70°F , 21°C
Humidity: 74%
Barometer: 29.83 inHg , 1010.2 hPa
Clouds: Clear
Visibility: 10 miles , 16 km
2019/08/17 16:55 KBIE 171655Z AUTO 20015G18KT 10SM CLR 26/21 A2983 RMK AO2 T02560205
KMLE - Omaha/Millard, Nebraska, USA
Distance from station: NE 39mi, 63km
Updated: Sat, 17-Aug-2019 11:55am CDT
Clear
Clear
 Wind from S
Wind: S 8 mph , 13 km/h
Temperature: 79°F , 26°C
Dew Point: 70°F , 21°C
Humidity: 74%
Barometer: 29.81 inHg , 1009.5 hPa
Clouds: Clear
Visibility: 10 miles , 16 km
2019/08/17 16:55 KMLE 171655Z AUTO 19007KT 10SM CLR 26/21 A2981 RMK AO2 T02640206
 
KPMV - Plattsmouth Muni, Nebraska, USA
Distance from station: ENE 39mi, 63km
Updated: Sat, 17-Aug-2019 11:55am CDT
Partly Cloudy
Partly Cloudy
 Wind from S
Wind: S 9 mph , 15 km/h
Temperature: 79°F , 26°C
Dew Point: 70°F , 21°C
Humidity: 74%
Barometer: 29.83 inHg , 1010.2 hPa
Clouds: Partly Cloudy
Visibility: 10 miles , 16 km
Cloud details: Partly Cloudy 12000 ft
2019/08/17 16:55 KPMV 171655Z AUTO 17008KT 10SM SCT120 26/21 A2983 RMK AO2 T02590209
KAFK - Nebraska City, Nebraska, USA
Distance from station: ESE 43mi, 69km
Updated: Sat, 17-Aug-2019 11:55am CDT
Partly Cloudy
Partly Cloudy
 Wind from S
Wind: S 12 mph , 19 km/h
Temperature: 77°F , 25°C
Dew Point: 70°F , 21°C
Humidity: 79%
Barometer: 29.85 inHg , 1010.8 hPa
Clouds: Partly Cloudy
Visibility: 10 miles , 16 km
Cloud details: Partly Cloudy 1900 ft
2019/08/17 16:55 KAFK 171655Z AUTO 17010KT 10SM SCT019 25/21 A2985 RMK AO2 T02490205
 
KOFF - Offutt Afb/Belle, Nebraska, USA
Distance from station: ENE 44mi, 70km
Updated: Sat, 17-Aug-2019 11:56am CDT
Partly Cloudy
Partly Cloudy
 Wind from S
Wind: S 10 mph , 17 km/h
Temperature: 79°F , 26°C
Dew Point: 66°F , 19°C
Humidity: 65%
Barometer: 29.85 inHg , 1010.8 hPa
Clouds: Partly Cloudy
Visibility: 10 miles , 16 km
Cloud details: Few Clouds 2000 ft
Partly Cloudy 20000 ft
2019/08/17 16:56 KOFF 171656Z 17009KT 10SM FEW020 SCT200 26/19 A2985 RMK AO2A SLP092 RVRNO $
KFET - Fremont Muni Arp, Nebraska, USA
Distance from station: N 46mi, 74km
Updated: Sat, 17-Aug-2019 11:55am CDT
Mostly Cloudy
Mostly Cloudy
 Wind from SSE
Wind: SSE 8 mph , 13 km/h
Temperature: 77°F , 25°C
Dew Point: 70°F , 21°C
Humidity: 79%
Barometer: 29.81 inHg , 1009.5 hPa
Clouds: Mostly Cloudy
Visibility: 10 miles , 16 km
Cloud details: Mostly Cloudy 1300 ft
Mostly Cloudy 12000 ft
2019/08/17 16:55 KFET 171655Z AUTO 15007KT 10SM BKN013 BKN120 25/21 A2981 RMK AO2 T02520209
 
KBTA - Blair Muni, Nebraska, USA
Distance from station: NNE 51mi, 82km
Updated: Sat, 17-Aug-2019 11:55am CDT
Partly Cloudy
Partly Cloudy
 Wind from S
Wind: S 9 mph , 15 km/h
Temperature: 77°F , 25°C
Dew Point: 68°F , 20°C
Humidity: 74%
Barometer: 29.81 inHg , 1009.5 hPa
Clouds: Partly Cloudy
Visibility: 10 miles , 16 km
Cloud details: Partly Cloudy 11000 ft
2019/08/17 16:55 KBTA 171655Z AUTO 18008KT 10SM SCT110 25/20 A2981 RMK AO2 T02530203
KJYR - York, Nebraska, USA
Distance from station: W 52mi, 84km
Updated: Sat, 17-Aug-2019 11:55am CDT
Clear
Clear
 Wind from SSW
Wind: SSW 9 mph , 15 km/h
Temperature: 79°F , 26°C
Dew Point: 70°F , 21°C
Humidity: 74%
Barometer: 29.81 inHg , 1009.5 hPa
Clouds: Clear
Visibility: 10 miles , 16 km
2019/08/17 16:55 KJYR 171655Z AUTO 20008KT 10SM CLR 26/21 A2981 RMK AO2
 
KOMA - Omaha/Eppley, Nebraska, USA
Distance from station: NE 53mi, 85km
Updated: Sat, 17-Aug-2019 11:52am CDT
Mostly Cloudy
Mostly Cloudy
 Wind from S
Wind: S 10 mph , 17 km/h
Temperature: 79°F , 26°C
Dew Point: 66°F , 19°C
Humidity: 65%
Barometer: 29.81 inHg , 1009.5 hPa
Clouds: Mostly Cloudy
Visibility: 10 miles , 16 km
Cloud details: Few Clouds 2500 ft
Mostly Cloudy 12000 ft
Mostly Cloudy 25000 ft
2019/08/17 16:52 KOMA 171652Z 18009KT 10SM FEW025 BKN120 BKN250 26/19 A2981 RMK AO2 SLP086 T02610194
KOLU - Columbus Muni, Nebraska, USA
Distance from station: NW 58mi, 93km
Updated: Sat, 17-Aug-2019 11:56am CDT
Overcast
Overcast
 Wind from SSE
Wind: SSE 7 mph , 11 km/h
Temperature: 75°F , 24°C
Dew Point: 70°F , 21°C
Humidity: 83%
Barometer: 29.81 inHg , 1009.5 hPa
Clouds: Overcast
Visibility: 10 miles , 16 km
Cloud details: Overcast 1200 ft
2019/08/17 16:56 KOLU 171656Z AUTO 16006KT 10SM OVC012 24/21 A2981 RMK AO2 SLP087 T02440211